Allen, Indiana
Current Conditions -  °F | °C
As of 5:15 AM on Monday 26 Jan 2015 (Local Time) from KGWB Reporting Station
Clear Clear  
Wind Chill:   Ceiling: Unl
Heat Index: 12°   Visibility: 10mi
Dew Point:   Wind: 6mph
Humidity: 73%   Direction: 360°N
Pressure: 29.92"   Gusts: NA
Location:  41.4608°N, 85.2531°W
Report Text: KGWB 261015Z AUTO 36005KT 10SM CLR M11/M15 A2992 RMK AO2
Loading
Personal Weather Stations






























Interactive Weather Map New forecast layout! Learn more

10-Day Weather Forecast

Advertisements
Track Severe Weather on mobile